Time;durP1;ratioP1;P1;durP2;ratioP2;P2;SDS_P1;SDS_P2;PMS_P1;PMS_P2;Temp;Humidity;BMP_temperature;BMP_pressure;BME280_temperature;BME280_humidity;BME280_pressure;Samples;Min_cycle;Max_cycle;Signal;HPM_P1;HPM_P2
2024/03/25 00:01:54;;;;;;;59.17;40.72;;;;;;;;;;5066209;28;20017;-43
2024/03/25 00:04:22;;;;;;;55.00;41.08;;;;;;;;;;5066252;28;20016;-41
2024/03/25 00:06:50;;;;;;;60.38;40.50;;;;;;;;;;5066126;28;20035;-47
2024/03/25 00:09:17;;;;;;;59.60;42.03;;;;;;;;;;5066011;28;20186;-48
2024/03/25 00:11:44;;;;;;;52.50;41.03;;;;;;;;;;5066140;28;20028;-48
2024/03/25 00:14:10;;;;;;;55.08;40.95;;;;;;;;;;5066143;28;20020;-48
2024/03/25 00:16:37;;;;;;;91.68;43.15;;;;;;;;;;5064517;28;20025;-42
2024/03/25 00:19:03;;;;;;;77.20;42.88;;;;;;;;;;5058679;28;20049;-44
2024/03/25 00:21:30;;;;;;;63.50;41.85;;;;;;;;;;5053997;28;20212;-38
2024/03/25 00:23:57;;;;;;;55.15;42.63;;;;;;;;;;5065883;28;20025;-43
2024/03/25 00:26:24;;;;;;;54.30;43.30;;;;;;;;;;5065794;28;20024;-42
2024/03/25 00:28:50;;;;;;;55.05;43.13;;;;;;;;;;5065686;28;20028;-45
2024/03/25 00:31:17;;;;;;;53.55;42.30;;;;;;;;;;5065540;28;20013;-40
2024/03/25 00:33:44;;;;;;;75.68;43.35;;;;;;;;;;5065622;28;20033;-42
2024/03/25 00:36:10;;;;;;;90.75;45.10;;;;;;;;;;5065660;28;20236;-39
2024/03/25 00:38:37;;;;;;;72.85;43.20;;;;;;;;;;5065592;28;20029;-43
2024/03/25 00:41:04;;;;;;;68.63;43.85;;;;;;;;;;5065612;28;20025;-44
2024/03/25 00:43:30;;;;;;;71.00;43.72;;;;;;;;;;5057016;28;20029;-39
2024/03/25 00:45:57;;;;;;;65.63;41.15;;;;;;;;;;5061965;28;20317;-43
2024/03/25 00:48:24;;;;;;;65.18;41.67;;;;;;;;;;5064283;28;20037;-41
2024/03/25 00:50:50;;;;;;;66.13;42.53;;;;;;;;;;5054276;28;20021;-40
2024/03/25 00:53:18;;;;;;;99.13;47.35;;;;;;;;;;5052110;28;20067;-47
2024/03/25 00:55:45;;;;;;;84.88;47.33;;;;;;;;;;5056596;28;20047;-44
2024/03/25 00:58:11;;;;;;;95.68;49.88;;;;;;;;;;5057941;28;20055;-40
2024/03/25 01:00:38;;;;;;;88.45;55.50;;;;;;;;;;5065288;28;20017;-48
2024/03/25 01:03:05;;;;;;;86.25;53.95;;;;;;;;;;5065522;28;20021;-41
2024/03/25 01:05:31;;;;;;;75.65;48.20;;;;;;;;;;5065238;28;20013;-41
2024/03/25 01:07:58;;;;;;;78.40;49.35;;;;;;;;;;5059249;28;20021;-39
2024/03/25 01:10:24;;;;;;;71.50;44.85;;;;;;;;;;5049951;28;20017;-40
2024/03/25 01:12:51;;;;;;;71.63;45.67;;;;;;;;;;5064739;28;20289;-38
2024/03/25 01:15:17;;;;;;;70.60;44.60;;;;;;;;;;5062634;28;20043;-45
2024/03/25 01:17:44;;;;;;;75.47;44.47;;;;;;;;;;5060574;28;20024;-42
2024/03/25 01:20:11;;;;;;;69.78;42.60;;;;;;;;;;5064293;28;20025;-48
2024/03/25 01:22:37;;;;;;;69.88;44.38;;;;;;;;;;5064894;28;20033;-47
2024/03/25 01:25:04;;;;;;;65.72;42.40;;;;;;;;;;5064685;28;20017;-43
2024/03/25 01:27:31;;;;;;;66.97;42.22;;;;;;;;;;5065090;28;20052;-44
2024/03/25 01:29:57;;;;;;;62.03;40.53;;;;;;;;;;5064747;28;20092;-43
2024/03/25 01:32:24;;;;;;;63.85;41.03;;;;;;;;;;5064743;28;20025;-40
2024/03/25 01:34:51;;;;;;;64.28;42.28;;;;;;;;;;5065173;28;20017;-42
2024/03/25 01:37:17;;;;;;;71.07;41.42;;;;;;;;;;5063607;28;20201;-42
2024/03/25 01:39:44;;;;;;;61.03;41.47;;;;;;;;;;5064530;28;20033;-39
2024/03/25 01:42:10;;;;;;;61.33;41.00;;;;;;;;;;5064580;28;20071;-45
2024/03/25 01:44:37;;;;;;;53.03;40.63;;;;;;;;;;5064416;28;20217;-45
2024/03/25 01:47:04;;;;;;;58.53;40.45;;;;;;;;;;5062598;28;20036;-40
2024/03/25 01:49:31;;;;;;;62.78;40.58;;;;;;;;;;5064285;28;20036;-43
2024/03/25 01:51:58;;;;;;;52.97;40.20;;;;;;;;;;5063880;28;20351;-39
2024/03/25 01:54:25;;;;;;;60.67;40.00;;;;;;;;;;5058135;28;20024;-39
2024/03/25 01:56:53;;;;;;;55.30;39.05;;;;;;;;;;5058066;28;20228;-39
2024/03/25 01:59:20;;;;;;;47.97;38.28;;;;;;;;;;5047001;28;20025;-44
2024/03/25 02:01:47;;;;;;;44.50;37.53;;;;;;;;;;5057258;28;20027;-38
2024/03/25 02:04:13;;;;;;;43.15;37.72;;;;;;;;;;5058035;28;20063;-41
2024/03/25 02:06:41;;;;;;;68.47;38.58;;;;;;;;;;5063093;28;20032;-38
2024/03/25 02:09:08;;;;;;;56.65;38.78;;;;;;;;;;5057139;28;20092;-39
2024/03/25 02:11:35;;;;;;;54.42;37.83;;;;;;;;;;5046582;28;20048;-45
2024/03/25 02:14:02;;;;;;;56.80;37.42;;;;;;;;;;5058519;28;20032;-37
2024/03/25 02:16:28;;;;;;;43.58;37.53;;;;;;;;;;5052599;28;20029;-39
2024/03/25 02:18:55;;;;;;;48.20;37.10;;;;;;;;;;5043821;28;20045;-41
2024/03/25 02:21:22;;;;;;;44.85;38.35;;;;;;;;;;5043916;28;20025;-48
2024/03/25 02:23:50;;;;;;;49.15;37.83;;;;;;;;;;5043955;28;20309;-42
2024/03/25 02:26:17;;;;;;;50.00;38.92;;;;;;;;;;5044000;28;20025;-40
2024/03/25 02:28:44;;;;;;;56.28;38.55;;;;;;;;;;5044026;28;20085;-44
2024/03/25 02:31:10;;;;;;;59.70;39.17;;;;;;;;;;5043911;28;20345;-40
2024/03/25 02:33:37;;;;;;;50.63;38.28;;;;;;;;;;5044394;28;20071;-42
2024/03/25 02:36:03;;;;;;;45.72;37.40;;;;;;;;;;5044004;28;20018;-39
2024/03/25 02:38:32;;;;;;;50.28;39.55;;;;;;;;;;5050306;28;20245;-43
2024/03/25 02:40:59;;;;;;;63.28;41.22;;;;;;;;;;5054027;28;20033;-40
2024/03/25 02:43:26;;;;;;;97.45;40.90;;;;;;;;;;5050457;28;20197;-46
2024/03/25 02:45:52;;;;;;;68.80;39.83;;;;;;;;;;5043879;28;20056;-42
2024/03/25 02:48:19;;;;;;;53.92;39.30;;;;;;;;;;5044198;28;20317;-46
2024/03/25 02:50:46;;;;;;;54.00;39.70;;;;;;;;;;5043994;28;20025;-42
2024/03/25 02:53:12;;;;;;;50.50;39.22;;;;;;;;;;5043667;28;20076;-43
2024/03/25 02:55:39;;;;;;;49.55;39.90;;;;;;;;;;5055264;28;20025;-43
2024/03/25 02:58:06;;;;;;;49.88;39.97;;;;;;;;;;5044185;28;20029;-43
2024/03/25 03:00:32;;;;;;;47.60;39.58;;;;;;;;;;5043668;28;20020;-41
2024/03/25 03:02:59;;;;;;;46.08;38.13;;;;;;;;;;5059149;28;20053;-43
2024/03/25 03:05:26;;;;;;;43.38;38.90;;;;;;;;;;5043514;28;20248;-39
2024/03/25 03:07:52;;;;;;;44.80;39.88;;;;;;;;;;5043401;28;20084;-45
2024/03/25 03:10:19;;;;;;;44.85;40.15;;;;;;;;;;5043264;28;20021;-40
2024/03/25 03:12:45;;;;;;;43.38;38.70;;;;;;;;;;5043792;28;20335;-39
2024/03/25 03:15:12;;;;;;;44.33;39.55;;;;;;;;;;5052361;28;20031;-42
2024/03/25 03:17:39;;;;;;;43.55;38.72;;;;;;;;;;5046310;28;20092;-54
2024/03/25 03:20:06;;;;;;;43.88;39.25;;;;;;;;;;5047616;28;20313;-47
2024/03/25 03:22:33;;;;;;;44.88;39.75;;;;;;;;;;5047826;28;20042;-45
2024/03/25 03:24:59;;;;;;;45.03;38.97;;;;;;;;;;5047040;28;20343;-41
2024/03/25 03:27:26;;;;;;;44.22;39.42;;;;;;;;;;5047363;28;20036;-51
2024/03/25 03:29:53;;;;;;;47.60;39.75;;;;;;;;;;5057819;28;20070;-40
2024/03/25 03:32:19;;;;;;;44.25;39.53;;;;;;;;;;5047053;28;20026;-50
2024/03/25 03:34:46;;;;;;;44.50;39.60;;;;;;;;;;5047154;28;20025;-50
2024/03/25 03:37:12;;;;;;;44.90;40.25;;;;;;;;;;5047069;28;20025;-40
2024/03/25 03:39:39;;;;;;;44.97;40.22;;;;;;;;;;5046967;28;20205;-52
2024/03/25 03:42:06;;;;;;;43.85;38.33;;;;;;;;;;5047041;28;20033;-40
2024/03/25 03:44:32;;;;;;;44.70;39.78;;;;;;;;;;5046768;28;20032;-42
2024/03/25 03:46:59;;;;;;;43.83;39.20;;;;;;;;;;5046632;28;20252;-41
2024/03/25 03:49:26;;;;;;;44.00;38.30;;;;;;;;;;5052095;28;20033;-43
2024/03/25 03:51:52;;;;;;;48.30;39.33;;;;;;;;;;5052498;28;20080;-37
2024/03/25 03:54:19;;;;;;;43.53;38.72;;;;;;;;;;5046584;28;20021;-47
2024/03/25 03:56:45;;;;;;;45.17;40.25;;;;;;;;;;5046773;28;20083;-45
2024/03/25 03:59:12;;;;;;;44.25;39.95;;;;;;;;;;5046606;28;20021;-46
2024/03/25 04:01:38;;;;;;;45.33;39.10;;;;;;;;;;5046502;28;20033;-44
2024/03/25 04:04:05;;;;;;;45.72;39.08;;;;;;;;;;5046331;28;20013;-44
2024/03/25 04:06:32;;;;;;;42.63;38.40;;;;;;;;;;5046272;28;20021;-44
2024/03/25 04:08:58;;;;;;;43.30;38.78;;;;;;;;;;5046381;28;20025;-44
2024/03/25 04:11:25;;;;;;;44.78;39.30;;;;;;;;;;5046345;28;20017;-48
2024/03/25 04:13:52;;;;;;;47.33;40.75;;;;;;;;;;5046562;28;20073;-45
2024/03/25 04:16:18;;;;;;;45.67;40.65;;;;;;;;;;5046097;28;20085;-44
2024/03/25 04:18:47;;;;;;;45.30;40.00;;;;;;;;;;5046047;28;20064;-39
2024/03/25 04:21:13;;;;;;;45.20;40.47;;;;;;;;;;5056972;28;20029;-41
2024/03/25 04:23:41;;;;;;;45.25;40.65;;;;;;;;;;5046211;28;20025;-42
2024/03/25 04:26:08;;;;;;;46.22;41.60;;;;;;;;;;5052788;28;20221;-43
2024/03/25 04:28:35;;;;;;;43.88;39.38;;;;;;;;;;5057607;28;20032;-39
2024/03/25 04:31:02;;;;;;;44.88;40.30;;;;;;;;;;5045161;28;20018;-43
2024/03/25 04:33:29;;;;;;;46.55;41.75;;;;;;;;;;5046325;28;20203;-45
2024/03/25 04:35:55;;;;;;;44.85;40.35;;;;;;;;;;5045827;28;20018;-39
2024/03/25 04:38:22;;;;;;;44.72;39.95;;;;;;;;;;5045739;28;20025;-48
2024/03/25 04:40:49;;;;;;;44.85;40.20;;;;;;;;;;5045825;28;20313;-49
2024/03/25 04:43:16;;;;;;;44.47;40.08;;;;;;;;;;5046522;28;20037;-37
2024/03/25 04:45:43;;;;;;;46.33;40.28;;;;;;;;;;5045764;28;20017;-39
2024/03/25 04:48:09;;;;;;;51.33;41.63;;;;;;;;;;5045792;28;20234;-39
2024/03/25 04:50:36;;;;;;;46.85;41.90;;;;;;;;;;5045491;28;20025;-39
2024/03/25 04:53:03;;;;;;;44.55;39.78;;;;;;;;;;5045912;28;20021;-41
2024/03/25 04:55:30;;;;;;;46.72;41.13;;;;;;;;;;5045321;28;20040;-41
2024/03/25 04:57:56;;;;;;;45.05;40.42;;;;;;;;;;5045676;28;20032;-38
2024/03/25 05:00:23;;;;;;;48.40;43.25;;;;;;;;;;5045376;28;20332;-39
2024/03/25 05:02:49;;;;;;;45.10;40.55;;;;;;;;;;5045443;28;20029;-41
2024/03/25 05:05:16;;;;;;;46.63;41.75;;;;;;;;;;5045311;28;20013;-39
2024/03/25 05:07:43;;;;;;;46.65;41.50;;;;;;;;;;5045492;28;20033;-40
2024/03/25 05:10:10;;;;;;;47.90;42.53;;;;;;;;;;5044971;28;20381;-44
2024/03/25 05:12:36;;;;;;;47.83;42.80;;;;;;;;;;5045348;28;20035;-38
2024/03/25 05:15:03;;;;;;;46.15;41.47;;;;;;;;;;5045125;28;20017;-42
2024/03/25 05:17:30;;;;;;;47.72;42.97;;;;;;;;;;5045135;28;20029;-43
2024/03/25 05:19:56;;;;;;;48.28;42.53;;;;;;;;;;5044764;28;20064;-41
2024/03/25 05:22:23;;;;;;;47.25;42.60;;;;;;;;;;5064956;28;20032;-47
2024/03/25 05:24:50;;;;;;;48.05;43.33;;;;;;;;;;5063475;28;20028;-44
2024/03/25 05:27:16;;;;;;;48.85;43.80;;;;;;;;;;5064892;28;20171;-44
2024/03/25 05:29:43;;;;;;;49.28;44.33;;;;;;;;;;5064764;28;20016;-40
2024/03/25 05:32:10;;;;;;;48.30;43.47;;;;;;;;;;5064813;28;20025;-41
2024/03/25 05:34:36;;;;;;;47.72;43.22;;;;;;;;;;5064483;28;20235;-44
2024/03/25 05:37:03;;;;;;;47.55;42.83;;;;;;;;;;5064571;28;20048;-39
2024/03/25 05:39:30;;;;;;;49.65;44.70;;;;;;;;;;5064603;28;20357;-45
2024/03/25 05:41:56;;;;;;;48.63;44.05;;;;;;;;;;5064537;28;20104;-54
2024/03/25 05:44:23;;;;;;;48.17;43.22;;;;;;;;;;5064471;28;20066;-51
2024/03/25 05:46:49;;;;;;;48.72;43.80;;;;;;;;;;5064644;28;20029;-50
2024/03/25 05:49:16;;;;;;;47.38;42.78;;;;;;;;;;5062361;28;20025;-47
2024/03/25 05:51:42;;;;;;;50.15;45.45;;;;;;;;;;5053188;28;20067;-40
2024/03/25 05:54:09;;;;;;;49.22;44.22;;;;;;;;;;5044403;28;20309;-44
2024/03/25 05:56:37;;;;;;;49.00;43.97;;;;;;;;;;5060642;28;20032;-52
2024/03/25 05:59:03;;;;;;;47.72;43.00;;;;;;;;;;5064210;28;20048;-51
2024/03/25 06:01:30;;;;;;;48.05;43.17;;;;;;;;;;5064193;28;20080;-58
2024/03/25 06:03:57;;;;;;;50.00;44.60;;;;;;;;;;5064066;28;20100;-48
2024/03/25 06:06:24;;;;;;;50.45;45.17;;;;;;;;;;5063944;28;20324;-49
2024/03/25 06:08:50;;;;;;;49.15;44.05;;;;;;;;;;5064065;28;20036;-48
2024/03/25 06:11:20;;;;;;;49.80;44.88;;;;;;;;;;5059921;28;20021;-45
2024/03/25 06:13:47;;;;;;;49.70;44.60;;;;;;;;;;5055246;28;20040;-49
2024/03/25 06:16:17;;;;;;;50.13;44.92;;;;;;;;;;5063926;28;20017;-50
2024/03/25 06:18:43;;;;;;;49.40;44.13;;;;;;;;;;5063703;28;20052;-45
2024/03/25 06:21:13;;;;;;;49.97;44.92;;;;;;;;;;5063636;28;20112;-45
2024/03/25 06:23:40;;;;;;;49.72;44.63;;;;;;;;;;5063843;28;20324;-44
2024/03/25 06:26:07;;;;;;;50.53;45.42;;;;;;;;;;5063703;28;20025;-40
2024/03/25 06:28:33;;;;;;;52.13;46.50;;;;;;;;;;5064317;28;20024;-40
2024/03/25 06:36:30;;;;;;;52.10;47.08;;;;;;;;;;5063832;28;20335;-44
2024/03/25 06:38:57;;;;;;;52.60;47.42;;;;;;;;;;5063825;28;20074;-39
2024/03/25 06:41:24;;;;;;;52.60;47.45;;;;;;;;;;5063628;28;20317;-43
2024/03/25 06:43:51;;;;;;;54.10;48.80;;;;;;;;;;5063622;28;20032;-42
2024/03/25 06:46:17;;;;;;;52.25;47.22;;;;;;;;;;5063547;28;20027;-41
2024/03/25 06:48:44;;;;;;;53.88;48.53;;;;;;;;;;5063650;28;20087;-39
2024/03/25 06:51:10;;;;;;;54.80;49.47;;;;;;;;;;5063593;28;20024;-48
2024/03/25 06:53:37;;;;;;;55.30;49.75;;;;;;;;;;5065999;28;20032;-53
2024/03/25 06:56:04;;;;;;;55.08;49.28;;;;;;;;;;5067673;28;20048;-49
2024/03/25 06:58:30;;;;;;;55.30;49.83;;;;;;;;;;5068082;28;20049;-48
2024/03/25 07:00:57;;;;;;;55.25;49.78;;;;;;;;;;5067585;28;20104;-58
2024/03/25 07:03:24;;;;;;;56.72;51.05;;;;;;;;;;5067953;28;20031;-50
2024/03/25 07:05:56;;;;;;;55.72;50.38;;;;;;;;;;5067551;28;20088;-52
2024/03/25 07:08:23;;;;;;;;;;;;;;;;;;5068126;28;20368;-50
2024/03/25 07:10:49;;;;;;;58.25;52.50;;;;;;;;;;5067449;28;19975;-54
2024/03/25 07:13:16;;;;;;;57.47;51.80;;;;;;;;;;5067643;28;20058;-53
2024/03/25 07:15:43;;;;;;;57.03;51.47;;;;;;;;;;5067550;28;20362;-54
2024/03/25 07:18:13;;;;;;;57.67;51.78;;;;;;;;;;5067405;28;20052;-51
2024/03/25 07:20:40;;;;;;;59.38;53.53;;;;;;;;;;5067201;28;20308;-53
2024/03/25 07:23:07;;;;;;;60.97;54.85;;;;;;;;;;5067651;28;20028;-56
2024/03/25 07:25:33;;;;;;;60.05;54.35;;;;;;;;;;5067223;28;20075;-41
2024/03/25 07:28:00;;;;;;;59.78;54.00;;;;;;;;;;5067403;28;20085;-50
2024/03/25 07:30:30;;;;;;;60.05;53.95;;;;;;;;;;5067033;28;20268;-49
2024/03/25 07:32:57;;;;;;;60.20;54.40;;;;;;;;;;5067206;28;20308;-45
2024/03/25 07:35:24;;;;;;;62.65;56.65;;;;;;;;;;5066828;28;20035;-43
2024/03/25 07:37:51;;;;;;;60.85;54.95;;;;;;;;;;5067242;28;20032;-48
2024/03/25 07:40:21;;;;;;;62.45;56.53;;;;;;;;;;5066836;28;20057;-49
2024/03/25 07:42:48;;;;;;;61.85;55.92;;;;;;;;;;5066960;28;20258;-51
2024/03/25 07:45:15;;;;;;;61.95;56.10;;;;;;;;;;5064514;28;20032;-49
2024/03/25 07:47:42;;;;;;;61.33;55.50;;;;;;;;;;5067092;28;20115;-54
2024/03/25 07:50:09;;;;;;;60.80;54.85;;;;;;;;;;5066516;28;20380;-50
2024/03/25 07:52:40;;;;;;;63.85;57.35;;;;;;;;;;5066943;28;20029;-51
2024/03/25 07:55:09;;;;;;;63.00;56.50;;;;;;;;;;5066582;28;20021;-49
2024/03/25 07:57:36;;;;;;;62.13;55.97;;;;;;;;;;5066638;28;20096;-50
2024/03/25 08:00:07;;;;;;;64.28;57.67;;;;;;;;;;5066452;28;20217;-53
2024/03/25 08:02:34;;;;;;;62.03;56.10;;;;;;;;;;5066706;28;20316;-48
2024/03/25 08:05:00;;;;;;;58.75;53.08;;;;;;;;;;5065024;28;20083;-51
2024/03/25 08:07:27;;;;;;;56.47;50.88;;;;;;;;;;5066543;28;20051;-52
2024/03/25 08:09:53;;;;;;;55.63;50.45;;;;;;;;;;5066293;28;20246;-51
2024/03/25 08:12:20;;;;;;;56.97;51.35;;;;;;;;;;5066378;28;20020;-54
2024/03/25 08:14:46;;;;;;;57.10;51.67;;;;;;;;;;5066354;28;20021;-54
2024/03/25 08:17:13;;;;;;;55.33;50.05;;;;;;;;;;5066401;28;20313;-49
2024/03/25 08:19:40;;;;;;;55.03;49.45;;;;;;;;;;5065870;28;20057;-53
2024/03/25 08:22:06;;;;;;;57.25;51.40;;;;;;;;;;5066387;28;20029;-54
2024/03/25 08:24:33;;;;;;;54.40;49.22;;;;;;;;;;5066035;28;20041;-43
2024/03/25 08:26:59;;;;;;;55.40;50.00;;;;;;;;;;5065998;28;20079;-48
2024/03/25 08:29:26;;;;;;;55.35;50.15;;;;;;;;;;5066849;28;20025;-50
2024/03/25 08:31:53;;;;;;;54.08;48.85;;;;;;;;;;5065918;28;20068;-51
2024/03/25 08:34:19;;;;;;;53.63;48.35;;;;;;;;;;5065769;28;20213;-50
2024/03/25 08:36:46;;;;;;;55.40;49.88;;;;;;;;;;5065705;28;20032;-50
2024/03/25 08:39:12;;;;;;;54.67;49.45;;;;;;;;;;5065799;28;20321;-40
2024/03/25 08:41:40;;;;;;;54.17;48.35;;;;;;;;;;5065930;28;20039;-49
2024/03/25 08:44:07;;;;;;;55.60;49.08;;;;;;;;;;5065818;28;20025;-43
2024/03/25 08:46:33;;;;;;;52.70;47.33;;;;;;;;;;5065605;28;20242;-43
2024/03/25 08:49:00;;;;;;;53.95;48.15;;;;;;;;;;5065456;28;20216;-39
2024/03/25 08:51:26;;;;;;;53.53;47.92;;;;;;;;;;5065417;28;20021;-43
2024/03/25 08:53:53;;;;;;;56.80;49.25;;;;;;;;;;5065553;28;20028;-45
2024/03/25 08:56:20;;;;;;;66.30;48.88;;;;;;;;;;5064189;28;20028;-40
2024/03/25 08:58:46;;;;;;;53.88;48.58;;;;;;;;;;5064913;28;20055;-50
2024/03/25 09:01:15;;;;;;;52.20;46.25;;;;;;;;;;5045295;28;20024;-50
2024/03/25 09:03:42;;;;;;;53.13;47.60;;;;;;;;;;5045315;28;20087;-51
2024/03/25 09:06:09;;;;;;;52.33;46.90;;;;;;;;;;5045111;28;20045;-45
2024/03/25 09:11:02;;;;;;;54.75;48.90;;;;;;;;;;5045615;28;20045;-42
2024/03/25 09:11:24;;;;;;;52.08;46.83;;;;;;;;;;5045096;28;20057;-41
2024/03/25 09:13:51;;;;;;;52.95;47.40;;;;;;;;;;5045070;28;20033;-48
2024/03/25 09:16:18;;;;;;;52.80;47.58;;;;;;;;;;5044749;28;20233;-41
2024/03/25 09:18:45;;;;;;;52.28;46.97;;;;;;;;;;5059984;28;20064;-43
2024/03/25 09:21:12;;;;;;;52.53;47.20;;;;;;;;;;5065092;28;20021;-45
2024/03/25 09:23:39;;;;;;;53.95;48.75;;;;;;;;;;5065175;28;20224;-49
2024/03/25 09:26:05;;;;;;;54.45;49.15;;;;;;;;;;5064723;28;20076;-51
2024/03/25 09:28:32;;;;;;;54.28;48.70;;;;;;;;;;5065187;28;20033;-49
2024/03/25 09:30:59;;;;;;;54.10;48.53;;;;;;;;;;5064817;28;20025;-43
2024/03/25 09:33:25;;;;;;;54.50;49.35;;;;;;;;;;5065037;28;20017;-45
2024/03/25 09:35:52;;;;;;;53.28;48.05;;;;;;;;;;5064758;28;20216;-47
2024/03/25 09:38:18;;;;;;;53.65;48.13;;;;;;;;;;5065067;28;20021;-49
2024/03/25 09:40:45;;;;;;;52.15;47.13;;;;;;;;;;5064455;28;20217;-52
2024/03/25 09:43:22;;;;;;;52.40;47.25;;;;;;;;;;5064959;28;20067;-50
2024/03/25 09:45:49;;;;;;;53.08;48.05;;;;;;;;;;5064615;28;20264;-53
2024/03/25 09:48:22;;;;;;;54.28;48.75;;;;;;;;;;5064704;28;20021;-48
2024/03/25 09:50:50;;;;;;;54.78;48.92;;;;;;;;;;5064453;28;20067;-49
2024/03/25 09:53:16;;;;;;;55.05;49.25;;;;;;;;;;5064699;28;20071;-57
2024/03/25 09:55:43;;;;;;;55.00;49.28;;;;;;;;;;5064370;28;20013;-55
2024/03/25 09:58:10;;;;;;;53.70;48.30;;;;;;;;;;5064655;28;20020;-50
2024/03/25 10:00:37;;;;;;;54.80;49.25;;;;;;;;;;5064315;28;20051;-48
2024/03/25 10:03:03;;;;;;;55.15;49.40;;;;;;;;;;5064590;28;20096;-46
2024/03/25 10:05:30;;;;;;;55.50;49.60;;;;;;;;;;5064094;28;20278;-44
2024/03/25 10:07:57;;;;;;;56.50;50.38;;;;;;;;;;5064098;28;20335;-39
2024/03/25 10:10:23;;;;;;;56.65;50.67;;;;;;;;;;5063939;28;20040;-48
2024/03/25 10:12:50;;;;;;;58.30;50.58;;;;;;;;;;5064406;28;20037;-50
2024/03/25 10:15:17;;;;;;;55.28;49.63;;;;;;;;;;5063941;28;20028;-43
2024/03/25 10:17:44;;;;;;;56.85;50.78;;;;;;;;;;5064202;28;20049;-44
2024/03/25 10:20:17;;;;;;;56.22;50.63;;;;;;;;;;5063910;28;20033;-47
2024/03/25 10:22:44;;;;;;;56.38;50.28;;;;;;;;;;5063904;28;20020;-49
2024/03/25 10:25:20;;;;;;;55.38;49.40;;;;;;;;;;5063895;28;20029;-56
2024/03/25 10:27:53;;;;;;;55.47;50.10;;;;;;;;;;5063435;28;20210;-48
2024/03/25 10:30:20;;;;;;;57.03;50.78;;;;;;;;;;5063579;28;20325;-46
2024/03/25 10:32:47;;;;;;;56.60;50.15;;;;;;;;;;5064227;28;20021;-50
2024/03/25 10:35:13;;;;;;;55.95;50.35;;;;;;;;;;5063739;28;20028;-47
2024/03/25 10:37:40;;;;;;;55.92;50.22;;;;;;;;;;5064354;28;20020;-49
2024/03/25 10:40:08;;;;;;;57.67;51.63;;;;;;;;;;5063790;28;20029;-48
2024/03/25 10:42:35;;;;;;;60.85;53.33;;;;;;;;;;5062680;28;20085;-48
2024/03/25 10:45:02;;;;;;;61.17;50.15;;;;;;;;;;5063598;28;20032;-44
2024/03/25 10:47:30;;;;;;;62.20;50.78;;;;;;;;;;5063815;28;20376;-50
2024/03/25 10:50:00;;;;;;;68.30;52.42;;;;;;;;;;5063499;28;20033;-49
2024/03/25 10:52:29;;;;;;;76.75;53.05;;;;;;;;;;5063377;28;20025;-43
2024/03/25 10:54:56;;;;;;;74.15;53.53;;;;;;;;;;5063551;28;20048;-43
2024/03/25 10:57:23;;;;;;;68.00;52.28;;;;;;;;;;5063978;28;20041;-47
2024/03/25 10:59:50;;;;;;;81.68;52.63;;;;;;;;;;5063626;28;20024;-46
2024/03/25 11:02:17;;;;;;;63.45;51.45;;;;;;;;;;5063732;28;20313;-44
2024/03/25 11:04:44;;;;;;;59.75;51.08;;;;;;;;;;5063610;28;20029;-50
2024/03/25 11:07:14;;;;;;;65.40;51.42;;;;;;;;;;5063548;28;20043;-44
2024/03/25 11:09:42;;;;;;;63.58;51.50;;;;;;;;;;5063586;28;20029;-43
2024/03/25 11:12:11;;;;;;;61.75;50.92;;;;;;;;;;5063524;28;20024;-51
2024/03/25 11:14:38;;;;;;;61.88;51.00;;;;;;;;;;5063543;28;20025;-47
2024/03/25 11:17:18;;;;;;;57.38;50.85;;;;;;;;;;5063607;28;20025;-46
2024/03/25 11:19:44;;;;;;;57.60;51.65;;;;;;;;;;5063151;28;20052;-56
2024/03/25 11:22:11;;;;;;;58.42;52.25;;;;;;;;;;5063552;28;20025;-49
2024/03/25 11:24:39;;;;;;;57.72;51.60;;;;;;;;;;5063253;28;20051;-55
2024/03/25 11:27:08;;;;;;;61.65;52.28;;;;;;;;;;5063320;28;20040;-48
2024/03/25 11:29:35;;;;;;;61.53;52.95;;;;;;;;;;5063160;28;20367;-48
2024/03/25 11:32:05;;;;;;;62.03;52.80;;;;;;;;;;5063452;28;20094;-48
2024/03/25 11:34:32;;;;;;;58.85;52.25;;;;;;;;;;5063114;28;20240;-49
2024/03/25 11:36:59;;;;;;;62.72;51.00;;;;;;;;;;5063521;28;20021;-49
2024/03/25 11:39:26;;;;;;;66.00;53.22;;;;;;;;;;5065084;28;20035;-57
2024/03/25 11:41:53;;;;;;;60.33;53.80;;;;;;;;;;5066973;28;20052;-48
2024/03/25 11:44:22;;;;;;;64.60;53.47;;;;;;;;;;5066836;28;20115;-55
2024/03/25 11:46:49;;;;;;;98.10;53.85;;;;;;;;;;5066795;28;20033;-50
2024/03/25 11:49:19;;;;;;;81.43;53.70;;;;;;;;;;5066574;28;20024;-52
2024/03/25 11:51:46;;;;;;;90.43;56.10;;;;;;;;;;5066747;28;20190;-42
2024/03/25 11:54:13;;;;;;;120.72;60.60;;;;;;;;;;5066890;28;20017;-50
2024/03/25 11:56:40;;;;;;;88.22;56.28;;;;;;;;;;5066164;28;20313;-45
2024/03/25 11:59:07;;;;;;;87.82;53.80;;;;;;;;;;5066512;28;20029;-46
2024/03/25 12:01:33;;;;;;;75.78;55.50;;;;;;;;;;5066505;28;20031;-46
2024/03/25 12:04:19;;;;;;;81.00;53.22;;;;;;;;;;5066325;28;20025;-49
2024/03/25 12:06:46;;;;;;;95.28;53.97;;;;;;;;;;5066556;28;20036;-50
2024/03/25 12:11:58;;;;;;;70.15;53.22;;;;;;;;;;5066483;28;20101;-44
2024/03/25 12:14:27;;;;;;;113.55;55.60;;;;;;;;;;5066139;28;20028;-43
2024/03/25 12:16:54;;;;;;;81.88;54.60;;;;;;;;;;5047684;28;20218;-54
2024/03/25 12:19:21;;;;;;;87.32;55.10;;;;;;;;;;5065961;28;20392;-46
2024/03/25 12:21:50;;;;;;;98.78;66.95;;;;;;;;;;5066074;28;20033;-48
2024/03/25 12:24:18;;;;;;;110.13;74.22;;;;;;;;;;5066276;28;20379;-49
2024/03/25 12:26:44;;;;;;;88.68;66.22;;;;;;;;;;5066038;28;20304;-46
2024/03/25 12:29:11;;;;;;;80.50;62.63;;;;;;;;;;5065783;28;20094;-49
2024/03/25 12:31:38;;;;;;;75.88;60.60;;;;;;;;;;5065932;28;20096;-49
2024/03/25 12:34:11;;;;;;;72.75;58.75;;;;;;;;;;5065976;28;20079;-50
2024/03/25 12:36:37;;;;;;;68.65;58.22;;;;;;;;;;5065724;28;20356;-52
2024/03/25 12:39:04;;;;;;;65.82;56.03;;;;;;;;;;5065951;28;20025;-46
2024/03/25 12:41:33;;;;;;;62.25;55.65;;;;;;;;;;5065694;28;20021;-51
2024/03/25 12:43:59;;;;;;;65.75;56.28;;;;;;;;;;5065853;28;20028;-56
2024/03/25 12:46:26;;;;;;;66.03;55.65;;;;;;;;;;5065821;28;20037;-53
2024/03/25 12:48:53;;;;;;;68.75;54.53;;;;;;;;;;5065571;28;20115;-55
2024/03/25 12:51:19;;;;;;;63.58;55.08;;;;;;;;;;5064696;28;20016;-51
2024/03/25 12:53:46;;;;;;;61.60;54.05;;;;;;;;;;5065506;28;20016;-52
2024/03/25 12:56:12;;;;;;;68.03;54.90;;;;;;;;;;5065483;28;20250;-51
2024/03/25 12:58:39;;;;;;;60.55;53.05;;;;;;;;;;5065367;28;20088;-58
2024/03/25 13:01:06;;;;;;;59.17;52.95;;;;;;;;;;5065513;28;20083;-51
2024/03/25 13:03:32;;;;;;;59.65;54.15;;;;;;;;;;5065824;28;20037;-57
2024/03/25 13:05:59;;;;;;;58.83;52.92;;;;;;;;;;5065168;28;20086;-55
2024/03/25 13:08:26;;;;;;;60.53;54.40;;;;;;;;;;5065809;28;20317;-57
2024/03/25 13:10:52;;;;;;;60.85;54.17;;;;;;;;;;5065448;28;20028;-57
2024/03/25 13:13:19;;;;;;;61.08;54.63;;;;;;;;;;5065446;28;20021;-56
2024/03/25 13:15:46;;;;;;;59.67;53.63;;;;;;;;;;5065225;28;20027;-55
2024/03/25 13:18:13;;;;;;;60.65;53.90;;;;;;;;;;5065272;28;20044;-56
2024/03/25 13:20:39;;;;;;;59.35;53.47;;;;;;;;;;5064989;28;20080;-47
2024/03/25 13:23:06;;;;;;;60.80;54.55;;;;;;;;;;5065053;28;20036;-54
2024/03/25 13:25:33;;;;;;;59.50;53.30;;;;;;;;;;5064951;28;20256;-50
2024/03/25 13:27:59;;;;;;;61.85;55.15;;;;;;;;;;5065080;28;20029;-48
2024/03/25 13:30:26;;;;;;;58.92;53.13;;;;;;;;;;5064717;28;20313;-53
2024/03/25 13:32:53;;;;;;;61.22;55.08;;;;;;;;;;5064994;28;20075;-50
2024/03/25 13:35:20;;;;;;;61.75;55.17;;;;;;;;;;5064616;28;20259;-47
2024/03/25 13:37:46;;;;;;;60.08;54.05;;;;;;;;;;5065323;28;20088;-54
2024/03/25 13:40:13;;;;;;;57.53;51.83;;;;;;;;;;5064816;28;20313;-51
2024/03/25 13:42:40;;;;;;;59.90;53.83;;;;;;;;;;5060306;28;20253;-43
2024/03/25 13:45:06;;;;;;;58.60;52.67;;;;;;;;;;5056540;28;20187;-46
2024/03/25 13:47:33;;;;;;;58.30;52.85;;;;;;;;;;5064838;28;20029;-47
2024/03/25 13:50:09;;;;;;;59.55;53.08;;;;;;;;;;5064377;28;20028;-50
2024/03/25 13:52:36;;;;;;;58.25;52.58;;;;;;;;;;5064908;28;20025;-47
2024/03/25 13:55:03;;;;;;;59.03;53.40;;;;;;;;;;5064488;28;20017;-48
2024/03/25 13:57:30;;;;;;;59.05;53.25;;;;;;;;;;5064424;28;20025;-42
2024/03/25 13:59:57;;;;;;;56.50;50.95;;;;;;;;;;5064894;28;20182;-46
2024/03/25 14:02:24;;;;;;;59.38;53.15;;;;;;;;;;5064160;28;20090;-40
2024/03/25 14:04:50;;;;;;;57.47;51.50;;;;;;;;;;5064393;28;20076;-46
2024/03/25 14:07:17;;;;;;;57.85;52.15;;;;;;;;;;5064738;28;20052;-41
2024/03/25 14:09:44;;;;;;;55.88;50.53;;;;;;;;;;5064223;28;20076;-47
2024/03/25 14:12:25;;;;;;;59.03;52.78;;;;;;;;;;5064072;28;20191;-48
2024/03/25 14:14:52;;;;;;;59.75;53.35;;;;;;;;;;5063995;28;20083;-48
2024/03/25 14:17:18;;;;;;;57.63;51.67;;;;;;;;;;5064538;28;20025;-52
2024/03/25 14:19:45;;;;;;;58.70;52.75;;;;;;;;;;5063971;28;20053;-50
2024/03/25 14:22:12;;;;;;;60.05;53.53;;;;;;;;;;5064837;28;20028;-52
2024/03/25 14:24:38;;;;;;;59.40;53.30;;;;;;;;;;5064098;28;20025;-42